Terminal Aerodrome Forecast
Issued by NWS

Current Version | Previous Version | Graphics & Text | Print | Product List | Glossary On
Versions: 1 2 3 4 5 6 7 8 9 10 11 12 13 14
642
FTUS41 KPBZ 212320
TAFHLG
TAF
KHLG 212320Z 2200/2224 28007KT P6SM SCT040
     FM221400 30005KT P6SM BKN025
     FM221600 31005KT P6SM SCT040=

USA.gov is the U.S. government's official web portal to all federal, state and local government web resources and services.